Weather History For Prescott AZ
This page updates 5 minutes after midnight. GMT -7
Station: KPRC0 Rows: 26
| Year | Date | Temp (°F) | Tmin (°F) | Tmax (°F) | RH% | Prcp | Snow | Wind | Gust | Pres | Sun | Cloud |
|---|---|---|---|---|---|---|---|---|---|---|---|---|
| 2000 | 2000-04-01 | 42.4 | 32.0 | 53.1 | 63 | — | — | 15.1 | — | 29.93 | — | 5 |
| 2001 | 2001-04-01 | 58.3 | 44.1 | 69.1 | 35 | — | — | 15.1 | — | 29.75 | — | 0 |
| 2002 | 2002-04-01 | 60.3 | 42.8 | 75.2 | 19 | — | — | 13.8 | — | 29.83 | — | 0 |
| 2003 | 2003-04-01 | 56.8 | — | — | 23 | — | — | 19.1 | — | 0.00 | — | 0 |
| 2004 | 2004-04-01 | 57.6 | 46.4 | 68.0 | 46 | — | — | 15.7 | — | 29.72 | — | 2 |
| 2005 | 2005-04-01 | 46.4 | 28.0 | 64.9 | 29 | 0.0 | — | 7.7 | — | 30.25 | — | 0 |
| 2006 | 2006-04-01 | 50.2 | 43.0 | 57.9 | 42 | 0.0 | — | 13.8 | — | 29.95 | — | 4 |
| 2007 | 2007-04-01 | 57.4 | 39.0 | 73.0 | 24 | — | — | 10.4 | — | 29.86 | — | 0 |
| 2008 | 2008-04-01 | 49.6 | 30.0 | 64.9 | 26 | 0.0 | — | 10.2 | — | 29.94 | — | 1 |
| 2009 | 2009-04-01 | 53.1 | 44.1 | 64.0 | 18 | 0.0 | — | 20.0 | — | 29.67 | — | 0 |
| 2010 | 2010-04-01 | 42.1 | 33.1 | 52.0 | 42 | — | — | 11.7 | — | 29.73 | — | 4 |
| 2011 | 2011-04-01 | 63.5 | 43.0 | 82.0 | 28 | 0.0 | — | 9.1 | — | 29.87 | — | 0 |
| 2012 | 2012-04-01 | 50.4 | 39.0 | 55.9 | 31 | 0.0 | — | 19.7 | — | 29.71 | — | 2 |
| 2013 | 2013-04-01 | 53.1 | 41.0 | 66.0 | 37 | 0.0 | — | 15.2 | — | 29.89 | — | 0 |
| 2014 | 2014-04-01 | 50.7 | 45.0 | 57.9 | 26 | 0.0 | — | 21.5 | — | 29.75 | — | 1 |
| 2015 | 2015-04-01 | 59.5 | 46.9 | 71.1 | 31 | — | — | 13.3 | — | 29.81 | — | 0 |
| 2016 | 2016-04-01 | — | — | — | — | 0.0 | — | 7.0 | — | 0.00 | — | — |
| 2017 | 2017-04-01 | 43.3 | 34.0 | 57.0 | 68 | 0.0 | — | 6.2 | — | 29.91 | — | — |
| 2018 | 2018-04-01 | 61.2 | 51.1 | 73.0 | 25 | 0.0 | — | 10.4 | — | 29.81 | — | 0 |
| 2019 | 2019-04-01 | 49.6 | 30.0 | 66.9 | 30 | 0.0 | — | 9.4 | — | 29.99 | — | 0 |
| 2020 | 2020-04-01 | 55.6 | 43.0 | 66.9 | 39 | 0.0 | — | 17.8 | — | 29.74 | — | 0 |
| 2021 | 2021-04-01 | 53.6 | 30.9 | 75.0 | 26 | 0.0 | — | 11.3 | — | 30.02 | — | 0 |
| 2022 | 2022-04-01 | 54.1 | 37.9 | 70.0 | 44 | 0.0 | — | 9.2 | — | 29.83 | — | 0 |
| 2023 | 2023-04-01 | 48.2 | 30.0 | 66.0 | 38 | 0.0 | — | 8.4 | — | 30.04 | — | 0 |
| 2024 | 2024-04-01 | 39.2 | 35.1 | 46.9 | 86 | — | — | 9.0 | — | 29.86 | — | 6 |
| 2025 | 2025-04-01 | 45.7 | 37.9 | 52.0 | 48 | — | — | 21.1 | — | 29.66 | — | 1 |